Time;durP1;ratioP1;P1;durP2;ratioP2;P2;SDS_P1;SDS_P2;PMS_P1;PMS_P2;Temp;Humidity;BMP_temperature;BMP_pressure;BME280_temperature;BME280_humidity;BME280_pressure;Samples;Min_cycle;Max_cycle;Signal;HPM_P1;HPM_P2
2024/03/06 00:00:22;;;;;;;6.55;2.72;;;;;;;4.06;100.00;97305.66;5057495;28;20037;-65
2024/03/06 00:02:49;;;;;;;5.45;2.50;;;;;;;4.08;100.00;97305.41;5070319;28;20032;-65
2024/03/06 00:05:15;;;;;;;5.10;2.70;;;;;;;4.11;100.00;97299.63;5058889;28;20051;-65
2024/03/06 00:07:42;;;;;;;7.05;2.60;;;;;;;4.12;100.00;97306.63;5056830;28;20045;-64
2024/03/06 00:10:09;;;;;;;5.05;2.55;;;;;;;4.14;100.00;97307.25;5054665;28;20051;-65
2024/03/06 00:12:35;;;;;;;4.40;2.42;;;;;;;4.18;100.00;97308.50;5070042;28;20136;-64
2024/03/06 00:15:02;;;;;;;6.22;2.40;;;;;;;4.27;100.00;97311.72;5064046;28;20384;-64
2024/03/06 00:17:28;;;;;;;8.18;2.40;;;;;;;4.27;100.00;97312.56;5069412;28;20103;-64
2024/03/06 00:19:55;;;;;;;5.93;2.28;;;;;;;4.27;100.00;97312.56;5058524;28;20123;-64
2024/03/06 00:22:22;;;;;;;3.83;2.00;;;;;;;4.36;100.00;97315.00;5058033;28;20132;-65
2024/03/06 00:24:50;;;;;;;5.55;2.30;;;;;;;4.40;100.00;97316.22;5056624;28;20064;-65
2024/03/06 00:27:18;;;;;;;5.03;2.15;;;;;;;4.43;100.00;97305.09;5062320;28;20094;-65
2024/03/06 00:29:45;;;;;;;6.65;2.70;;;;;;;4.47;100.00;97317.03;5063518;28;20037;-64
2024/03/06 00:32:11;;;;;;;5.78;2.55;;;;;;;4.51;100.00;97315.56;5054407;28;20052;-64
2024/03/06 00:34:38;;;;;;;5.15;2.40;;;;;;;4.55;100.00;97315.94;5064645;28;20037;-65
2024/03/06 00:37:04;;;;;;;6.45;2.20;;;;;;;4.59;100.00;97319.00;5058875;28;20442;-64
2024/03/06 00:39:31;;;;;;;4.78;2.42;;;;;;;4.63;100.00;97315.69;5064524;28;20037;-65
2024/03/06 00:41:57;;;;;;;3.92;1.85;;;;;;;4.64;100.00;97311.97;5066940;28;20055;-64
2024/03/06 00:44:24;;;;;;;6.80;2.17;;;;;;;4.69;100.00;97314.81;5062138;28;20049;-64
2024/03/06 00:46:50;;;;;;;6.00;2.40;;;;;;;4.72;100.00;97308.19;5056489;28;20450;-64
2024/03/06 00:49:17;;;;;;;3.70;1.70;;;;;;;4.74;100.00;97311.50;5067479;28;20090;-64
2024/03/06 00:51:44;;;;;;;6.43;2.40;;;;;;;4.76;100.00;97301.38;5074866;28;20221;-65
2024/03/06 00:54:16;;;;;;;7.47;2.55;;;;;;;4.78;100.00;97303.84;5062025;28;20389;-65
2024/03/06 00:56:43;;;;;;;4.63;2.00;;;;;;;4.73;100.00;97312.56;5066148;28;20123;-65
2024/03/06 00:59:10;;;;;;;4.95;2.03;;;;;;;4.68;100.00;97301.63;5066353;28;20098;-64
2024/03/06 01:01:37;;;;;;;3.22;1.80;;;;;;;4.72;100.00;97305.53;5065751;28;20037;-65
2024/03/06 01:04:03;;;;;;;4.03;1.85;;;;;;;4.68;100.00;97305.16;5062923;28;20052;-65
2024/03/06 01:06:30;;;;;;;5.85;1.90;;;;;;;4.72;100.00;97310.09;5073083;28;20041;-65
2024/03/06 01:08:56;;;;;;;5.13;2.20;;;;;;;4.77;100.00;97316.44;5070990;28;20044;-64
2024/03/06 01:11:24;;;;;;;4.18;1.98;;;;;;;4.74;100.00;97311.50;5061662;28;20650;-64
2024/03/06 01:13:50;;;;;;;4.03;1.50;;;;;;;4.72;100.00;97313.56;5069572;28;20418;-65
2024/03/06 01:16:17;;;;;;;6.18;1.83;;;;;;;4.71;100.00;97316.50;5057712;28;20032;-65
2024/03/06 01:18:44;;;;;;;3.22;1.80;;;;;;;4.66;100.00;97315.28;5064747;28;20638;-65
2024/03/06 01:21:10;;;;;;;6.07;1.95;;;;;;;4.65;100.00;97320.84;5070448;28;20040;-64
2024/03/06 01:23:37;;;;;;;5.22;1.60;;;;;;;4.63;100.00;97320.22;5068342;28;20054;-64
2024/03/06 01:26:03;;;;;;;4.40;1.70;;;;;;;4.60;100.00;97323.38;5059938;28;20036;-65
2024/03/06 01:28:30;;;;;;;4.45;2.08;;;;;;;4.56;100.00;97322.94;5059690;28;20033;-64
2024/03/06 01:30:58;;;;;;;3.35;1.88;;;;;;;4.54;100.00;97317.78;5067820;28;20507;-64
2024/03/06 01:33:25;;;;;;;4.35;1.77;;;;;;;4.52;100.00;97319.88;5067608;28;20040;-65
2024/03/06 01:35:51;;;;;;;4.03;1.92;;;;;;;4.54;100.00;97327.72;5067973;28;20060;-64
2024/03/06 01:38:18;;;;;;;4.07;1.83;;;;;;;4.53;100.00;97321.53;5060696;28;20503;-65
2024/03/06 01:40:45;;;;;;;3.63;1.55;;;;;;;4.52;100.00;97325.25;5067775;28;20508;-64
2024/03/06 01:43:22;;;;;;;5.95;2.00;;;;;;;4.52;100.00;97324.41;5060213;28;20037;-64
2024/03/06 01:45:50;;;;;;;4.47;1.90;;;;;;;4.48;100.00;97324.03;5062069;28;20044;-65
2024/03/06 01:48:21;;;;;;;3.83;1.80;;;;;;;4.48;100.00;97318.66;5060944;28;20064;-64
2024/03/06 01:50:47;;;;;;;4.30;1.93;;;;;;;4.47;100.00;97314.34;5055952;28;20036;-64
2024/03/06 01:53:17;;;;;;;5.85;1.90;;;;;;;4.47;100.00;97311.66;5064103;28;20956;-65
2024/03/06 01:55:44;;;;;;;4.32;1.88;;;;;;;4.49;100.00;97314.94;5069117;28;20041;-64
2024/03/06 01:58:11;;;;;;;5.22;1.90;;;;;;;4.44;100.00;97317.44;5071317;28;20048;-64
2024/03/06 02:00:38;;;;;;;4.60;1.60;;;;;;;4.46;100.00;97314.56;5076517;28;20127;-64
2024/03/06 02:03:05;;;;;;;5.30;1.92;;;;;;;4.46;100.00;97314.56;5068712;28;20053;-64
2024/03/06 02:05:32;;;;;;;5.45;1.83;;;;;;;4.42;100.00;97314.13;5063021;28;20045;-65
2024/03/06 02:08:02;;;;;;;3.55;1.80;;;;;;;4.39;100.00;97320.75;5070555;28;20047;-64
2024/03/06 02:10:30;;;;;;;4.63;2.00;;;;;;;4.45;100.00;97323.66;5063479;28;20121;-64
2024/03/06 02:12:57;;;;;;;5.22;1.98;;;;;;;4.42;100.00;97322.19;5065559;28;20041;-65
2024/03/06 02:15:24;;;;;;;4.18;2.03;;;;;;;4.40;100.00;97326.94;5063230;28;20037;-64
2024/03/06 02:17:52;;;;;;;5.00;1.90;;;;;;;4.39;100.00;97326.13;5059810;28;20048;-65
2024/03/06 02:20:25;;;;;;;3.75;1.95;;;;;;;4.34;100.00;97331.31;5062091;28;20454;-65
2024/03/06 02:22:52;;;;;;;5.60;1.90;;;;;;;4.33;100.00;97323.47;5064118;28;20052;-65
2024/03/06 02:25:19;;;;;;;3.60;1.95;;;;;;;4.33;100.00;97323.47;5067224;28;20048;-65
2024/03/06 02:27:48;;;;;;;4.85;1.90;;;;;;;4.45;100.00;97329.00;5063940;28;20062;-65
2024/03/06 02:30:14;;;;;;;4.57;2.13;;;;;;;4.41;100.00;97324.06;5065753;28;20566;-64
2024/03/06 02:32:43;;;;;;;4.80;2.05;;;;;;;4.39;100.00;97325.31;5049052;28;20616;-65
2024/03/06 02:35:10;;;;;;;4.15;2.10;;;;;;;4.32;100.00;97328.03;5049520;28;20041;-65
2024/03/06 02:37:38;;;;;;;6.43;2.20;;;;;;;4.39;100.00;97325.31;5064086;28;20071;-64
2024/03/06 02:40:07;;;;;;;6.32;2.83;;;;;;;4.36;100.00;97323.88;5062554;28;20047;-65
2024/03/06 02:42:33;;;;;;;6.75;2.30;;;;;;;4.38;100.00;97329.84;5057662;28;20835;-65
2024/03/06 02:45:00;;;;;;;5.80;2.22;;;;;;;4.36;100.00;97328.41;5057222;28;20512;-65
2024/03/06 02:47:26;;;;;;;4.18;2.03;;;;;;;4.27;100.00;97328.66;5066581;28;20115;-64
2024/03/06 02:49:53;;;;;;;4.65;2.00;;;;;;;4.23;100.00;97332.78;5068477;28;20081;-65
2024/03/06 02:52:19;;;;;;;7.43;2.05;;;;;;;4.22;100.00;97341.03;5055108;28;20043;-64
2024/03/06 02:54:46;;;;;;;3.72;2.13;;;;;;;4.20;100.00;97348.47;5068122;28;20391;-65
2024/03/06 02:57:12;;;;;;;3.83;2.05;;;;;;;4.22;100.00;97339.19;5063227;28;20044;-65
2024/03/06 02:59:42;;;;;;;4.13;2.20;;;;;;;4.24;100.00;97339.78;5071824;28;20024;-65
2024/03/06 03:02:09;;;;;;;6.38;2.65;;;;;;;4.20;100.00;97343.94;5066535;28;20059;-65
2024/03/06 03:04:35;;;;;;;6.13;2.53;;;;;;;4.27;100.00;97343.91;5055506;28;20052;-65
2024/03/06 03:07:02;;;;;;;5.38;2.30;;;;;;;4.32;100.00;97332.56;5055415;28;20037;-64
2024/03/06 03:09:29;;;;;;;7.28;2.88;;;;;;;4.41;100.00;97336.63;5067886;28;20428;-64
2024/03/06 03:11:55;;;;;;;8.70;2.65;;;;;;;4.38;100.00;97335.19;5066587;28;20506;-65
2024/03/06 03:14:22;;;;;;;5.88;2.50;;;;;;;4.43;100.00;97338.06;5063198;28;20040;-65
2024/03/06 03:16:48;;;;;;;5.28;2.50;;;;;;;4.42;100.00;97338.28;5070208;28;20109;-64
2024/03/06 03:19:16;;;;;;;4.80;2.22;;;;;;;4.47;100.00;97337.66;5052911;28;20052;-64
2024/03/06 03:21:45;;;;;;;6.25;2.33;;;;;;;4.47;100.00;97343.84;5060446;28;20051;-65
2024/03/06 03:24:12;;;;;;;9.70;2.90;;;;;;;4.45;100.00;97335.16;5062182;28;20035;-65
2024/03/06 03:26:38;;;;;;;5.82;2.47;;;;;;;4.43;100.00;97339.94;5063165;28;20538;-64
2024/03/06 03:29:05;;;;;;;5.03;2.30;;;;;;;4.47;100.00;97332.28;5060653;28;20032;-65
2024/03/06 03:31:32;;;;;;;4.78;2.67;;;;;;;4.41;100.00;97342.84;5068051;28;20052;-65
2024/03/06 03:33:59;;;;;;;4.60;2.50;;;;;;;4.44;100.00;97333.53;5060270;28;20530;-65
2024/03/06 03:36:26;;;;;;;5.53;2.35;;;;;;;4.47;100.00;97343.84;5055024;28;20032;-65
2024/03/06 03:38:52;;;;;;;7.68;2.85;;;;;;;4.40;100.00;97346.56;5068476;28;20641;-64
2024/03/06 03:41:19;;;;;;;5.43;2.55;;;;;;;4.43;100.00;97342.63;5055126;28;20111;-64
2024/03/06 03:43:45;;;;;;;5.65;2.53;;;;;;;4.43;100.00;97350.66;5053204;28;20036;-65
2024/03/06 03:46:13;;;;;;;5.53;2.63;;;;;;;4.41;100.00;97339.31;5056116;28;20065;-64
2024/03/06 03:48:40;;;;;;;7.95;2.90;;;;;;;4.35;100.00;97348.22;5067452;28;20040;-64
2024/03/06 03:51:09;;;;;;;6.40;2.47;;;;;;;4.38;100.00;97345.94;5068438;28;20040;-64
2024/03/06 03:53:35;;;;;;;6.43;2.80;;;;;;;4.43;100.00;97351.47;5055445;28;20075;-64
2024/03/06 03:56:03;;;;;;;4.88;2.65;;;;;;;4.43;100.00;97347.97;5060011;28;20047;-64
2024/03/06 03:58:30;;;;;;;5.13;2.80;;;;;;;4.42;100.00;97365.91;5063735;28;20044;-64
2024/03/06 04:00:56;;;;;;;5.85;3.30;;;;;;;4.36;100.00;97366.78;5066455;28;20054;-64
2024/03/06 04:03:23;;;;;;;6.28;2.78;;;;;;;4.33;100.00;97363.69;5064295;28;20506;-64
2024/03/06 04:05:51;;;;;;;5.53;2.80;;;;;;;4.33;100.00;97359.16;5062582;28;20482;-64
2024/03/06 04:08:18;;;;;;;7.65;3.63;;;;;;;4.38;100.00;97369.22;5062247;28;20040;-64
2024/03/06 04:10:45;;;;;;;5.15;3.22;;;;;;;4.36;100.00;97374.00;5057975;28;20040;-64
2024/03/06 04:13:12;;;;;;;6.15;3.15;;;;;;;4.30;100.00;97370.28;5057368;28;20573;-64
2024/03/06 04:15:39;;;;;;;7.25;3.22;;;;;;;4.25;100.00;97378.16;5060226;28;20032;-64
2024/03/06 04:18:06;;;;;;;5.50;2.90;;;;;;;4.26;100.00;97375.25;5066817;28;20050;-65
2024/03/06 04:20:33;;;;;;;5.93;3.38;;;;;;;4.29;100.00;97377.53;5071133;28;20112;-64
2024/03/06 04:22:59;;;;;;;6.93;3.55;;;;;;;4.28;100.00;97375.84;5064647;28;20070;-64
2024/03/06 04:25:26;;;;;;;6.95;3.78;;;;;;;4.35;100.00;97373.16;5060966;28;20045;-64
2024/03/06 04:27:52;;;;;;;7.95;3.42;;;;;;;4.34;100.00;97376.03;5070429;28;20044;-64
2024/03/06 04:30:19;;;;;;;7.45;4.10;;;;;;;4.35;100.00;97377.72;5066159;28;20087;-63
2024/03/06 04:32:45;;;;;;;9.43;3.83;;;;;;;4.37;100.00;97381.00;5070787;28;20596;-64
2024/03/06 04:35:12;;;;;;;8.18;3.67;;;;;;;4.38;100.00;97383.47;5061637;28;20052;-64
2024/03/06 04:37:39;;;;;;;7.50;3.60;;;;;;;4.40;100.00;97386.78;5060685;28;20044;-64
2024/03/06 04:40:10;;;;;;;5.63;3.20;;;;;;;4.45;100.00;97391.47;5062052;28;20047;-64
2024/03/06 04:42:37;;;;;;;8.33;3.37;;;;;;;4.44;100.00;97392.53;5075095;28;20119;-63
2024/03/06 04:45:11;;;;;;;6.75;3.33;;;;;;;4.38;100.00;97391.50;5060368;28;20506;-64
2024/03/06 04:47:37;;;;;;;8.00;3.58;;;;;;;4.42;100.00;97394.56;5063516;28;20554;-64
2024/03/06 04:50:08;;;;;;;6.03;3.50;;;;;;;4.36;100.00;97398.94;5066546;28;20036;-64
2024/03/06 04:52:35;;;;;;;6.57;3.67;;;;;;;4.40;100.00;97396.66;5059490;28;20488;-64
2024/03/06 04:55:02;;;;;;;6.85;3.65;;;;;;;4.38;100.00;97399.53;5061516;28;20131;-64
2024/03/06 04:57:29;;;;;;;7.40;3.80;;;;;;;4.30;100.00;97413.19;5067475;28;20115;-64
2024/03/06 04:59:56;;;;;;;6.38;3.55;;;;;;;4.23;100.00;97402.47;5074409;28;20117;-64
2024/03/06 05:02:22;;;;;;;6.95;3.40;;;;;;;4.27;100.00;97410.91;5065476;28;20044;-64
2024/03/06 05:04:49;;;;;;;7.28;3.53;;;;;;;4.29;100.00;97411.53;5077454;28;20859;-64
2024/03/06 05:07:33;;;;;;;6.50;3.25;;;;;;;4.13;100.00;97423.53;5059857;28;20029;-64
2024/03/06 05:10:17;;;;;;;6.25;3.25;;;;;;;4.17;100.00;97419.41;5067121;28;20029;-63
2024/03/06 05:13:01;;;;;;;9.75;3.42;;;;;;;4.24;100.00;97422.88;5070361;28;20032;-64
2024/03/06 05:15:45;;;;;;;6.63;3.40;;;;;;;4.28;100.00;97436.69;5071719;28;20070;-64
2024/03/06 05:18:28;;;;;;;7.57;4.28;;;;;;;4.26;100.00;97434.22;5058009;28;20029;-64
2024/03/06 05:21:12;;;;;;;9.27;3.30;;;;;;;4.28;100.00;97442.06;5061879;28;20160;-64
2024/03/06 05:23:57;;;;;;;9.00;3.90;;;;;;;4.23;100.00;97436.47;5057512;28;20343;-64
2024/03/06 05:26:41;;;;;;;8.30;3.53;;;;;;;4.24;100.00;97438.97;5069752;28;20453;-64
2024/03/06 05:29:26;;;;;;;4.97;2.78;;;;;;;4.20;100.00;97437.72;5064653;28;20039;-64
2024/03/06 05:32:10;;;;;;;6.47;3.53;;;;;;;4.18;100.00;97442.50;5061336;28;20067;-64
2024/03/06 05:34:54;;;;;;;6.07;3.05;;;;;;;4.22;100.00;97438.34;5064281;28;20064;-65
2024/03/06 05:37:38;;;;;;;5.60;3.50;;;;;;;4.26;100.00;97444.94;5057883;28;20039;-64
2024/03/06 05:40:22;;;;;;;7.57;2.90;;;;;;;4.14;100.00;97449.31;5071284;28;20032;-65
2024/03/06 05:43:06;;;;;;;7.47;3.53;;;;;;;4.09;100.00;97446.44;5064517;28;20075;-64
2024/03/06 05:45:50;;;;;;;5.82;3.17;;;;;;;4.13;100.00;97450.34;5053834;28;20657;-64
2024/03/06 05:48:34;;;;;;;8.90;3.17;;;;;;;4.18;100.00;97452.38;5059918;28;20029;-65
2024/03/06 05:51:18;;;;;;;9.77;3.50;;;;;;;4.19;100.00;97454.00;5056073;28;20028;-64
2024/03/06 05:54:03;;;;;;;7.05;3.50;;;;;;;4.12;100.00;97456.72;5065346;28;20039;-64
2024/03/06 05:56:49;;;;;;;7.10;3.38;;;;;;;4.10;100.00;97456.94;5061360;28;20476;-65
2024/03/06 05:59:33;;;;;;;5.45;3.10;;;;;;;4.11;100.00;97463.94;5061917;28;20673;-64
2024/03/06 06:01:59;;;;;;;5.88;3.33;;;;;;;4.10;100.00;97464.16;5065061;28;20391;-64
2024/03/06 06:04:26;;;;;;;8.30;3.50;;;;;;;4.01;100.00;97464.34;5063714;28;20036;-64
2024/03/06 06:06:53;;;;;;;6.68;2.80;;;;;;;4.02;100.00;97466.00;5060043;28;20047;-65
2024/03/06 06:09:19;;;;;;;11.10;3.42;;;;;;;4.09;100.00;97470.53;5059441;28;20057;-64
2024/03/06 06:11:47;;;;;;;8.00;3.25;;;;;;;4.05;100.00;97475.47;5060879;28;20036;-62
2024/03/06 06:14:14;;;;;;;6.82;3.10;;;;;;;3.98;100.00;97472.00;5057857;28;20055;-61
2024/03/06 06:16:42;;;;;;;5.93;3.50;;;;;;;3.94;100.00;97479.59;5063407;28;20043;-61
2024/03/06 06:19:08;;;;;;;10.18;3.70;;;;;;;3.98;100.00;97480.84;5053661;28;20044;-61
2024/03/06 06:21:35;;;;;;;7.88;3.22;;;;;;;4.06;100.00;97479.00;5059925;28;20055;-64
2024/03/06 06:24:03;;;;;;;8.02;3.47;;;;;;;4.10;100.00;97482.91;5067848;28;20079;-64
2024/03/06 06:26:30;;;;;;;8.50;3.97;;;;;;;4.07;100.00;97489.50;5058199;28;20123;-64
2024/03/06 06:28:57;;;;;;;6.25;3.20;;;;;;;4.07;100.00;97492.19;5069277;28;20569;-64
2024/03/06 06:31:25;;;;;;;7.45;3.15;;;;;;;4.07;100.00;97486.81;5059214;28;20049;-65
2024/03/06 06:33:51;;;;;;;7.07;3.63;;;;;;;4.12;100.00;97496.91;5069569;28;20041;-63
2024/03/06 06:36:19;;;;;;;6.65;3.80;;;;;;;4.22;100.00;97501.84;5056717;28;20045;-64
2024/03/06 06:38:47;;;;;;;9.43;4.00;;;;;;;4.29;100.00;97497.31;5060606;28;20055;-64
2024/03/06 06:41:14;;;;;;;7.32;3.72;;;;;;;4.31;100.00;97503.28;5070681;28;20040;-64
2024/03/06 06:43:41;;;;;;;7.70;3.85;;;;;;;4.38;100.00;97505.94;5061562;28;20071;-64
2024/03/06 06:46:08;;;;;;;6.90;4.05;;;;;;;4.29;100.00;97508.88;5060190;28;20787;-64
2024/03/06 06:48:35;;;;;;;9.02;3.92;;;;;;;4.36;100.00;97516.91;5052061;28;20053;-64
2024/03/06 06:51:02;;;;;;;8.90;3.63;;;;;;;4.35;100.00;97519.78;5060640;28;20128;-63
2024/03/06 06:53:32;;;;;;;7.82;4.07;;;;;;;4.15;100.00;97523.31;5066096;28;20046;-64
2024/03/06 06:55:58;;;;;;;6.35;3.33;;;;;;;4.22;100.00;97517.94;5066322;28;20051;-64
2024/03/06 06:58:28;;;;;;;7.60;3.60;;;;;;;4.29;100.00;97516.09;5056328;28;20047;-64
2024/03/06 07:00:54;;;;;;;8.05;3.53;;;;;;;4.28;100.00;97522.47;5065026;28;20128;-64
2024/03/06 07:03:29;;;;;;;8.02;3.88;;;;;;;4.32;100.00;97520.19;5062864;28;20051;-65
2024/03/06 07:05:57;;;;;;;5.97;3.53;;;;;;;4.39;100.00;97531.75;5066994;28;20659;-64
2024/03/06 07:08:23;;;;;;;7.30;3.78;;;;;;;4.40;100.00;97523.50;5052042;28;20036;-64
2024/03/06 07:10:53;;;;;;;8.80;4.60;;;;;;;4.43;100.00;97524.94;5064402;28;20267;-65
2024/03/06 07:13:19;;;;;;;7.25;3.35;;;;;;;4.56;100.00;97529.44;5069554;28;20055;-65
2024/03/06 07:15:46;;;;;;;9.18;3.65;;;;;;;4.60;100.00;97535.22;5066991;28;20036;-65
2024/03/06 07:18:13;;;;;;;6.15;4.10;;;;;;;4.71;100.00;97531.88;5053315;28;20044;-64
2024/03/06 07:20:40;;;;;;;9.05;4.28;;;;;;;4.85;100.00;97534.53;5062370;28;20043;-65
2024/03/06 07:23:07;;;;;;;7.28;3.95;;;;;;;4.80;100.00;97530.63;5064821;28;20542;-65
2024/03/06 07:25:34;;;;;;;7.90;3.78;;;;;;;4.82;100.00;97535.78;5050705;28;20156;-65
2024/03/06 07:28:00;;;;;;;7.10;3.58;;;;;;;5.03;100.00;97532.00;5061072;28;20236;-65
2024/03/06 07:30:29;;;;;;;7.93;3.10;;;;;;;4.92;100.00;97530.81;5056195;28;20564;-64
2024/03/06 07:32:57;;;;;;;6.13;3.42;;;;;;;5.04;100.00;97532.81;5064671;28;20044;-65
2024/03/06 07:35:23;;;;;;;6.15;3.42;;;;;;;4.85;100.00;97535.38;5051331;28;20041;-65
2024/03/06 07:37:50;;;;;;;7.15;3.72;;;;;;;4.97;100.00;97540.09;5059134;28;20106;-65
2024/03/06 07:40:17;;;;;;;9.60;4.97;;;;;;;4.84;100.00;97543.63;5054133;28;20131;-65
2024/03/06 07:42:43;;;;;;;9.05;4.15;;;;;;;4.87;100.00;97544.00;5069735;28;20060;-65
2024/03/06 07:45:10;;;;;;;7.07;3.63;;;;;;;4.94;100.00;97549.38;5067358;28;20044;-65
2024/03/06 07:47:37;;;;;;;7.68;4.25;;;;;;;4.92;100.00;97546.06;5060159;28;20646;-65
2024/03/06 07:50:06;;;;;;;8.02;4.05;;;;;;;4.97;100.00;97546.25;5061742;28;20093;-65
2024/03/06 07:52:33;;;;;;;9.68;4.22;;;;;;;4.76;100.00;97558.09;5062505;28;20037;-65
2024/03/06 07:54:59;;;;;;;8.63;4.68;;;;;;;4.83;100.00;97553.50;5064173;28;20044;-65
2024/03/06 07:57:26;;;;;;;9.30;4.50;;;;;;;4.81;100.00;97552.91;5057697;28;20127;-65
2024/03/06 07:59:54;;;;;;;10.98;5.18;;;;;;;4.70;100.00;97554.38;5065047;28;20048;-65
2024/03/06 08:02:21;;;;;;;7.22;3.67;;;;;;;4.73;100.00;97553.97;5058759;28;20056;-65
2024/03/06 08:04:48;;;;;;;9.95;4.90;;;;;;;4.65;100.00;97554.19;5067141;28;20600;-64
2024/03/06 08:07:15;;;;;;;8.80;4.15;;;;;;;4.80;100.00;97567.38;5061814;28;20054;-64
2024/03/06 08:09:43;;;;;;;8.38;4.53;;;;;;;4.94;100.00;97562.81;5054659;28;20564;-65
2024/03/06 08:12:09;;;;;;;8.00;4.82;;;;;;;4.84;100.00;97573.13;5070572;28;20705;-65
2024/03/06 08:14:36;;;;;;;8.05;4.57;;;;;;;4.82;100.00;97579.53;5067184;28;20050;-65
2024/03/06 08:17:03;;;;;;;9.02;4.88;;;;;;;4.82;100.00;97574.19;5067346;28;20531;-65
2024/03/06 08:19:29;;;;;;;9.05;4.95;;;;;;;5.01;100.00;97574.31;5066975;28;20040;-65
2024/03/06 08:21:56;;;;;;;9.18;4.63;;;;;;;5.04;100.00;97568.53;5057706;28;20044;-65
2024/03/06 08:24:23;;;;;;;8.75;4.10;;;;;;;5.23;100.00;97578.59;5057840;28;20049;-65
2024/03/06 08:26:49;;;;;;;8.88;4.75;;;;;;;5.30;100.00;97579.38;5058486;28;20114;-65
2024/03/06 08:29:16;;;;;;;8.48;3.95;;;;;;;5.20;100.00;97577.97;5051515;28;20056;-65
2024/03/06 08:31:42;;;;;;;7.65;3.97;;;;;;;5.25;100.00;97585.41;5067790;28;20032;-65
2024/03/06 08:34:09;;;;;;;8.27;3.97;;;;;;;5.31;100.00;97581.84;5056694;28;20119;-65
2024/03/06 08:36:36;;;;;;;7.57;3.70;;;;;;;5.08;100.00;97587.72;5066455;28;20054;-65
2024/03/06 08:39:03;;;;;;;8.23;3.67;;;;;;;5.15;100.00;97591.22;5058560;28;20080;-64
2024/03/06 08:41:29;;;;;;;7.40;3.88;;;;;;;5.30;100.00;97585.59;5059749;28;20047;-65
2024/03/06 08:43:56;;;;;;;9.73;3.80;;;;;;;5.40;100.00;97590.50;5062515;28;20078;-65
2024/03/06 08:46:23;;;;;;;8.68;4.13;;;;;;;5.52;100.00;97587.97;5055799;28;20052;-65
2024/03/06 08:48:50;;;;;;;8.40;3.85;;;;;;;5.70;100.00;97597.19;5064075;28;20535;-65
2024/03/06 08:51:17;;;;;;;6.00;3.40;;;;;;;5.58;100.00;97592.50;5065427;28;20048;-64
2024/03/06 08:53:43;;;;;;;6.45;3.42;;;;;;;5.55;100.00;97600.97;5053901;28;20044;-64
2024/03/06 08:56:10;;;;;;;7.93;3.63;;;;;;;5.24;100.00;97599.88;5064198;28;20147;-65
2024/03/06 08:58:37;;;;;;;7.72;3.83;;;;;;;5.23;100.00;97606.25;5061277;28;20040;-65
2024/03/06 09:01:04;;;;;;;5.80;3.55;;;;;;;5.21;100.00;97608.34;5066894;28;20043;-65
2024/03/06 09:03:31;;;;;;;8.85;3.70;;;;;;;5.34;100.00;97607.47;5060506;28;20049;-64
2024/03/06 09:05:59;;;;;;;7.85;4.20;;;;;;;5.37;100.00;97603.53;5064980;28;20044;-65
2024/03/06 09:08:26;;;;;;;10.23;3.97;;;;;;;5.51;100.00;97605.13;5059201;28;20048;-65
2024/03/06 09:10:52;;;;;;;7.75;4.43;;;;;;;5.53;100.00;97608.41;5070439;28;20109;-64
2024/03/06 09:13:19;;;;;;;8.15;4.10;;;;;;;5.71;100.00;97607.72;5066254;28;20068;-65
2024/03/06 09:15:46;;;;;;;7.82;4.22;;;;;;;5.71;100.00;97610.41;5067246;28;20138;-65
2024/03/06 09:18:12;;;;;;;8.15;3.80;;;;;;;5.78;100.00;97610.38;5061091;28;20667;-65
2024/03/06 09:20:39;;;;;;;9.65;4.47;;;;;;;5.73;100.00;97619.09;5059269;28;20099;-65
2024/03/06 09:23:05;;;;;;;6.55;4.28;;;;;;;5.68;100.00;97610.03;5064646;28;20044;-65
2024/03/06 09:25:32;;;;;;;6.78;4.10;;;;;;;5.42;100.00;97611.78;5061782;28;20077;-65
2024/03/06 09:28:00;;;;;;;6.50;4.28;;;;;;;5.33;100.00;97620.06;5068067;28;20052;-64
2024/03/06 09:30:28;;;;;;;7.28;4.57;;;;;;;5.48;100.00;97621.66;5066455;28;20049;-65
2024/03/06 09:32:54;;;;;;;9.57;4.95;;;;;;;5.34;100.00;97623.56;5074268;28;20051;-65
2024/03/06 09:35:21;;;;;;;6.72;4.72;;;;;;;5.44;100.00;97626.66;5068443;28;20049;-64
2024/03/06 09:37:48;;;;;;;9.90;4.88;;;;;;;5.59;100.00;97629.06;5064879;28;20147;-65
2024/03/06 09:40:22;;;;;;;8.45;5.13;;;;;;;5.51;100.00;97634.69;5053566;28;20866;-65
2024/03/06 09:42:52;;;;;;;8.27;5.30;;;;;;;5.44;100.00;97631.19;5054289;28;20044;-65
2024/03/06 09:45:23;;;;;;;7.93;5.07;;;;;;;5.39;100.00;97639.91;5057018;28;20072;-64
2024/03/06 09:47:53;;;;;;;9.07;5.55;;;;;;;5.24;100.00;97634.78;5066278;28;20043;-64
2024/03/06 09:50:26;;;;;;;9.17;6.57;;;;;;;5.27;100.00;97633.53;5065639;28;20735;-65
2024/03/06 09:52:55;;;;;;;13.50;5.72;;;;;;;5.23;100.00;97637.66;5057156;28;20056;-64
2024/03/06 09:55:22;;;;;;;9.13;6.20;;;;;;;5.29;100.00;97640.34;5063555;28;20055;-64
2024/03/06 09:57:49;;;;;;;10.45;7.10;;;;;;;5.29;100.00;97640.34;5063759;28;20788;-65
2024/03/06 10:00:17;;;;;;;11.00;7.50;;;;;;;5.21;100.00;97638.69;5060936;28;20049;-65
2024/03/06 10:03:05;;;;;;;12.68;8.60;;;;;;;5.42;100.00;97641.31;5056129;28;20044;-65
2024/03/06 10:05:34;;;;;;;12.75;9.02;;;;;;;5.45;100.00;97641.72;5062081;28;20041;-64
2024/03/06 10:08:01;;;;;;;13.07;8.50;;;;;;;5.49;100.00;97639.41;5071014;28;20045;-65
2024/03/06 10:10:27;;;;;;;13.50;9.90;;;;;;;5.49;100.00;97635.94;5056406;28;20044;-65
2024/03/06 10:12:54;;;;;;;14.02;10.60;;;;;;;5.74;100.00;97636.03;5066101;28;20594;-64
2024/03/06 10:15:22;;;;;;;15.60;10.85;;;;;;;5.73;100.00;97637.06;5063858;28;20556;-64
2024/03/06 10:17:49;;;;;;;15.02;10.60;;;;;;;5.86;100.00;97628.09;5064303;28;20040;-65
2024/03/06 10:20:20;;;;;;;14.15;10.95;;;;;;;5.96;100.00;97633.00;5066670;28;20055;-65
2024/03/06 10:22:51;;;;;;;15.02;10.63;;;;;;;5.94;100.00;97633.22;5058641;28;20047;-65
2024/03/06 10:25:25;;;;;;;15.23;9.93;;;;;;;6.23;100.00;97632.91;5056866;28;20053;-64
2024/03/06 10:28:06;;;;;;;12.73;10.07;;;;;;;5.86;100.00;97639.69;5076347;28;20059;-64
2024/03/06 10:30:35;;;;;;;12.30;9.57;;;;;;;6.05;100.00;97636.31;5068787;28;20115;-65
2024/03/06 10:33:08;;;;;;;15.70;10.15;;;;;;;6.07;100.00;97640.44;5069976;28;20182;-65
2024/03/06 10:35:38;;;;;;;14.02;9.65;;;;;;;6.13;100.00;97637.91;5056536;28;20041;-65
2024/03/06 10:38:05;;;;;;;14.85;9.98;;;;;;;5.96;100.00;97638.38;5072009;28;20132;-65
2024/03/06 10:40:40;;;;;;;15.27;9.95;;;;;;;6.16;100.00;97634.78;5064791;28;20634;-64
2024/03/06 10:43:08;;;;;;;14.80;10.15;;;;;;;6.26;100.00;97640.50;5060397;28;20049;-65
2024/03/06 10:45:48;;;;;;;16.00;10.90;;;;;;;5.95;100.00;97631.38;5057902;28;20487;-65
2024/03/06 10:48:17;;;;;;;15.35;10.52;;;;;;;6.06;100.00;97646.84;5057614;28;20051;-65
2024/03/06 10:50:45;;;;;;;18.15;12.10;;;;;;;5.71;100.00;97641.81;5055323;28;20045;-64
2024/03/06 10:53:17;;;;;;;19.05;12.07;;;;;;;6.04;100.00;97650.81;5065658;28;20055;-64
2024/03/06 10:55:50;;;;;;;19.92;11.10;;;;;;;5.95;100.00;97644.81;5064555;28;20047;-64
2024/03/06 10:58:19;;;;;;;18.20;11.48;;;;;;;6.18;100.00;97646.16;5063454;28;20051;-64
2024/03/06 11:00:49;;;;;;;17.42;12.13;;;;;;;6.05;100.00;97653.25;5060345;28;20041;-64
2024/03/06 11:03:17;;;;;;;19.02;12.35;;;;;;;6.46;100.00;97651.16;5066787;28;20416;-65
2024/03/06 11:05:50;;;;;;;17.25;11.45;;;;;;;6.05;100.00;97647.06;5064685;28;20083;-64
2024/03/06 11:08:19;;;;;;;22.08;12.85;;;;;;;6.05;100.00;97645.19;5058182;28;20047;-65
2024/03/06 11:10:45;;;;;;;17.88;11.52;;;;;;;6.20;100.00;97649.47;5062417;28;20102;-65
2024/03/06 11:13:24;;;;;;;19.05;11.30;;;;;;;6.02;100.00;97642.91;5066452;28;20055;-65
2024/03/06 11:15:53;;;;;;;19.20;11.68;;;;;;;6.12;100.00;97642.47;5063141;28;20098;-65
2024/03/06 11:18:28;;;;;;;15.90;11.27;;;;;;;6.23;100.00;97643.66;5056887;28;20047;-65
2024/03/06 11:21:02;;;;;;;19.23;11.95;;;;;;;6.20;100.00;97638.69;5053184;28;20045;-64
2024/03/06 11:23:30;;;;;;;17.20;11.50;;;;;;;6.26;100.00;97645.88;5058205;28;20040;-65
2024/03/06 11:26:03;;;;;;;18.92;12.40;;;;;;;6.23;100.00;97649.84;5068028;28;20075;-65
2024/03/06 11:28:32;;;;;;;18.27;12.07;;;;;;;6.37;100.00;97639.81;5061216;28;20052;-65
2024/03/06 11:31:09;;;;;;;16.85;11.43;;;;;;;6.29;100.00;97655.38;5071143;28;20044;-64
2024/03/06 11:33:43;;;;;;;17.38;11.55;;;;;;;6.23;100.00;97646.34;5069203;28;20044;-65
2024/03/06 11:36:30;;;;;;;19.77;12.30;;;;;;;6.02;100.00;97636.72;5061824;28;20135;-65
2024/03/06 11:38:59;;;;;;;20.10;13.52;;;;;;;6.18;100.00;97651.53;5059985;28;20515;-65